Time;durP1;ratioP1;P1;durP2;ratioP2;P2;SDS_P1;SDS_P2;PMS_P1;PMS_P2;Temp;Humidity;BMP_temperature;BMP_pressure;BME280_temperature;BME280_humidity;BME280_pressure;Samples;Min_cycle;Max_cycle;Signal;HPM_P1;HPM_P2
2024/02/10 00:04:06;;;;;;;0.65;0.65;;;8.20;99.90;;;;;;4414451;32;20097;-59
2024/02/10 00:06:36;;;;;;;2.05;0.70;;;8.30;99.90;;;;;;4412960;32;20184;-58
2024/02/10 00:09:06;;;;;;;2.65;1.60;;;8.30;99.90;;;;;;4412696;32;20767;-59
2024/02/10 00:11:32;;;;;;;1.40;0.93;;;8.30;99.90;;;;;;4412535;32;20094;-57
2024/02/10 00:13:58;;;;;;;0.75;0.70;;;8.40;99.90;;;;;;4412254;32;20092;-59
2024/02/10 00:16:26;;;;;;;0.60;0.60;;;8.50;99.90;;;;;;4417375;32;20099;-58
2024/02/10 00:18:53;;;;;;;0.32;0.32;;;8.40;99.90;;;;;;4415234;32;20093;-59
2024/02/10 00:21:20;;;;;;;0.73;0.70;;;8.50;99.90;;;;;;4415764;32;20057;-58
2024/02/10 00:23:47;;;;;;;0.68;0.68;;;8.40;99.90;;;;;;4414952;32;20529;-58
2024/02/10 00:26:15;;;;;;;0.75;0.75;;;8.30;99.90;;;;;;4416146;32;20127;-58
2024/02/10 00:28:40;;;;;;;3.12;1.70;;;8.30;99.90;;;;;;4413231;32;20084;-58
2024/02/10 00:31:07;;;;;;;1.33;0.98;;;8.40;99.90;;;;;;4412776;32;20082;-58
2024/02/10 00:33:34;;;;;;;0.85;0.85;;;8.40;99.90;;;;;;4412555;32;20070;-58
2024/02/10 00:35:59;;;;;;;0.75;0.75;;;8.30;99.90;;;;;;4413188;32;20095;-57
2024/02/10 00:38:25;;;;;;;0.60;0.60;;;8.30;99.90;;;;;;4413615;32;20069;-57
2024/02/10 00:40:50;;;;;;;1.23;0.88;;;8.40;99.90;;;;;;4413545;32;20782;-57
2024/02/10 00:43:16;;;;;;;1.20;1.08;;;8.30;99.90;;;;;;4411345;32;20525;-58
2024/02/10 00:45:43;;;;;;;0.95;0.70;;;8.20;99.90;;;;;;4414142;32;20495;-57
2024/02/10 00:48:09;;;;;;;1.20;0.90;;;8.10;99.90;;;;;;4413101;32;20088;-57
2024/02/10 00:50:34;;;;;;;1.12;0.93;;;8.10;99.90;;;;;;4409298;32;20098;-59
2024/02/10 00:53:02;;;;;;;0.60;0.60;;;8.00;99.90;;;;;;4414998;32;20082;-57
2024/02/10 00:55:30;;;;;;;0.70;0.70;;;8.10;99.90;;;;;;4413578;32;20291;-59
2024/02/10 00:57:55;;;;;;;1.25;0.95;;;8.10;99.90;;;;;;4409430;32;20073;-59
2024/02/10 01:00:22;;;;;;;0.40;0.40;;;8.10;99.90;;;;;;4401757;32;20073;-58
2024/02/10 01:02:47;;;;;;;0.73;0.73;;;8.10;99.90;;;;;;4412607;32;20090;-59
2024/02/10 01:05:14;;;;;;;0.82;0.82;;;8.10;99.90;;;;;;4415293;32;20073;-58
2024/02/10 01:07:39;;;;;;;0.60;0.60;;;8.10;99.90;;;;;;4412567;32;20065;-58
2024/02/10 01:10:06;;;;;;;1.00;0.88;;;8.00;99.90;;;;;;4412539;32;20147;-59
2024/02/10 01:12:32;;;;;;;2.37;0.88;;;8.00;99.90;;;;;;4412424;32;20077;-58
2024/02/10 01:14:58;;;;;;;0.30;0.30;;;8.00;99.90;;;;;;4415305;32;20080;-58
2024/02/10 01:17:24;;;;;;;45.15;1.45;;;8.10;99.90;;;;;;4417991;32;20090;-59
2024/02/10 01:19:50;;;;;;;0.60;0.60;;;8.10;99.90;;;;;;4414406;32;20144;-58
2024/02/10 01:22:17;;;;;;;1.62;1.52;;;8.20;99.90;;;;;;4415245;32;20537;-57
2024/02/10 01:24:45;;;;;;;0.73;0.60;;;8.30;99.90;;;;;;4416378;32;20350;-55
2024/02/10 01:27:11;;;;;;;1.02;0.90;;;8.40;99.90;;;;;;4416702;32;20097;-57
2024/02/10 01:29:38;;;;;;;0.75;0.75;;;8.40;99.90;;;;;;4415880;32;20549;-57
2024/02/10 01:32:05;;;;;;;0.85;0.75;;;8.40;99.90;;;;;;4419811;32;20184;-58
2024/02/10 01:34:32;;;;;;;1.10;1.00;;;8.40;99.90;;;;;;4414985;32;20172;-58
2024/02/10 01:36:58;;;;;;;0.55;0.52;;;8.40;99.90;;;;;;4417587;32;20120;-57
2024/02/10 01:39:24;;;;;;;1.08;0.82;;;8.40;99.90;;;;;;4414054;32;20120;-57
2024/02/10 01:41:52;;;;;;;1.33;1.23;;;8.30;99.90;;;;;;4416080;32;20073;-57
2024/02/10 01:44:18;;;;;;;0.60;0.60;;;8.20;99.90;;;;;;4417891;32;20123;-58
2024/02/10 01:46:44;;;;;;;0.60;0.60;;;8.20;99.90;;;;;;4417401;32;20080;-57
2024/02/10 01:49:10;;;;;;;0.90;0.90;;;8.10;99.90;;;;;;4419470;32;20066;-57
2024/02/10 01:51:36;;;;;;;1.60;1.15;;;8.10;99.90;;;;;;4414740;32;20172;-58
2024/02/10 01:54:03;;;;;;;0.85;0.80;;;8.00;99.90;;;;;;4414017;32;20588;-57
2024/02/10 01:56:30;;;;;;;0.45;0.45;;;8.00;99.90;;;;;;4413722;32;20081;-57
2024/02/10 01:58:57;;;;;;;0.98;0.90;;;8.00;99.90;;;;;;4402299;32;20085;-56
2024/02/10 02:01:23;;;;;;;0.55;0.55;;;7.90;99.90;;;;;;4411522;32;20129;-57
2024/02/10 02:03:48;;;;;;;1.50;1.05;;;8.00;99.90;;;;;;4414654;32;20065;-57
2024/02/10 02:06:18;;;;;;;0.60;0.60;;;8.00;99.90;;;;;;4415953;32;20505;-57
2024/02/10 02:08:46;;;;;;;0.70;0.70;;;7.90;99.90;;;;;;4413077;32;20533;-57
2024/02/10 02:11:12;;;;;;;0.80;0.80;;;7.90;99.90;;;;;;4409462;32;20166;-57
2024/02/10 02:13:38;;;;;;;0.60;0.60;;;7.80;99.90;;;;;;4409031;32;20085;-57
2024/02/10 02:16:04;;;;;;;0.40;0.40;;;7.80;99.90;;;;;;4413696;32;20125;-57
2024/02/10 02:18:29;;;;;;;0.65;0.65;;;7.80;99.90;;;;;;4414105;32;20122;-59
2024/02/10 02:20:55;;;;;;;0.80;0.80;;;7.80;99.90;;;;;;4415273;32;20140;-60
2024/02/10 02:23:21;;;;;;;0.45;0.45;;;7.80;99.90;;;;;;4414741;32;20118;-59
2024/02/10 02:25:48;;;;;;;0.70;0.70;;;7.80;99.90;;;;;;4413829;32;20068;-59
2024/02/10 02:28:15;;;;;;;0.37;0.37;;;7.70;99.90;;;;;;4413091;32;20080;-60
2024/02/10 02:30:40;;;;;;;0.75;0.75;;;7.80;99.90;;;;;;4413240;32;20110;-58
2024/02/10 02:33:07;;;;;;;3.60;0.77;;;7.90;99.90;;;;;;4412765;32;20089;-58
2024/02/10 02:35:32;;;;;;;1.95;1.50;;;7.90;99.90;;;;;;4414565;32;20168;-60
2024/02/10 02:37:58;;;;;;;0.50;0.50;;;7.80;99.90;;;;;;4412468;32;20508;-59
2024/02/10 02:40:25;;;;;;;0.55;0.55;;;7.80;99.90;;;;;;4412269;32;20086;-59
2024/02/10 02:42:52;;;;;;;0.52;0.52;;;7.80;99.90;;;;;;4411629;32;20428;-59
2024/02/10 02:45:18;;;;;;;0.55;0.50;;;7.80;99.90;;;;;;4415739;32;20638;-59
2024/02/10 02:47:43;;;;;;;0.50;0.50;;;7.70;99.90;;;;;;4417626;32;20116;-58
2024/02/10 02:50:09;;;;;;;0.50;0.50;;;7.80;99.90;;;;;;4418692;32;20112;-60
2024/02/10 02:52:37;;;;;;;0.52;0.52;;;7.70;99.90;;;;;;4415665;32;20095;-60
2024/02/10 02:55:03;;;;;;;1.00;0.90;;;7.80;99.90;;;;;;4401552;32;20076;-59
2024/02/10 02:57:33;;;;;;;2.37;0.60;;;7.90;99.90;;;;;;4416208;32;20077;-59
2024/02/10 03:00:00;;;;;;;1.90;0.87;;;7.90;99.90;;;;;;4417840;32;20533;-59
2024/02/10 03:02:25;;;;;;;0.37;0.37;;;7.90;99.90;;;;;;4416986;32;20093;-58
2024/02/10 03:04:51;;;;;;;1.95;0.98;;;7.90;99.90;;;;;;4417913;32;20084;-59
2024/02/10 03:07:16;;;;;;;6.70;2.35;;;8.00;99.90;;;;;;4409251;32;20481;-59
2024/02/10 03:09:45;;;;;;;0.60;0.60;;;8.00;99.90;;;;;;4416865;32;20070;-59
2024/02/10 03:12:12;;;;;;;0.75;0.57;;;8.00;99.90;;;;;;4412608;32;20070;-58
2024/02/10 03:14:39;;;;;;;14.23;1.25;;;8.00;99.90;;;;;;4415599;32;20113;-58
2024/02/10 03:17:07;;;;;;;1.17;1.02;;;8.10;99.90;;;;;;4418809;32;20049;-60
2024/02/10 03:19:36;;;;;;;0.52;0.52;;;8.10;99.90;;;;;;4416344;32;20124;-59
2024/02/10 03:22:04;;;;;;;0.40;0.40;;;8.20;99.90;;;;;;4417086;32;20508;-60
2024/02/10 03:24:32;;;;;;;2.40;1.25;;;8.20;99.90;;;;;;4417927;32;20081;-59
2024/02/10 03:26:57;;;;;;;7.57;1.25;;;8.30;99.90;;;;;;4412789;32;20129;-58
2024/02/10 03:29:23;;;;;;;0.40;0.40;;;8.40;99.90;;;;;;4416428;32;20545;-60
2024/02/10 03:31:48;;;;;;;0.60;0.60;;;8.50;99.90;;;;;;4413930;32;20078;-60
2024/02/10 03:34:14;;;;;;;2.30;1.02;;;8.50;99.90;;;;;;4413683;32;20077;-58
2024/02/10 03:36:40;;;;;;;0.70;0.70;;;8.60;99.90;;;;;;4411889;32;20526;-60
2024/02/10 03:39:07;;;;;;;2.60;1.60;;;8.60;99.90;;;;;;4414284;32;20081;-59
2024/02/10 03:41:33;;;;;;;0.60;0.60;;;8.70;99.90;;;;;;4410799;32;20105;-57
2024/02/10 03:44:01;;;;;;;0.57;0.55;;;8.70;99.90;;;;;;4411043;32;20182;-56
2024/02/10 03:46:30;;;;;;;3.80;1.40;;;8.80;99.90;;;;;;4411453;32;20077;-59
2024/02/10 03:48:58;;;;;;;0.50;0.50;;;8.70;99.90;;;;;;4411592;32;20116;-58
2024/02/10 03:51:31;;;;;;;4.15;1.05;;;8.70;99.90;;;;;;4413873;32;20460;-59
2024/02/10 03:53:57;;;;;;;0.98;0.75;;;8.80;99.90;;;;;;4413788;32;20549;-59
2024/02/10 03:56:27;;;;;;;2.58;1.25;;;8.80;99.90;;;;;;4411747;32;20084;-62
2024/02/10 03:58:52;;;;;;;0.50;0.50;;;8.80;99.90;;;;;;4410406;32;20061;-59
2024/02/10 04:01:18;;;;;;;1.77;0.95;;;8.80;99.90;;;;;;4408008;32;20525;-60
2024/02/10 04:03:44;;;;;;;0.40;0.40;;;8.80;99.90;;;;;;4408276;32;20065;-59
2024/02/10 04:06:11;;;;;;;0.40;0.40;;;8.80;99.90;;;;;;4412221;32;20054;-58
2024/02/10 04:08:37;;;;;;;7.55;1.48;;;8.70;99.90;;;;;;4405108;32;20195;-59
2024/02/10 04:11:06;;;;;;;0.30;0.30;;;8.80;99.90;;;;;;4407922;32;20074;-59
2024/02/10 04:13:33;;;;;;;1.00;0.93;;;8.80;99.90;;;;;;4405138;32;20109;-58
2024/02/10 04:15:59;;;;;;;0.40;0.40;;;8.80;99.90;;;;;;4410125;32;20128;-58
2024/02/10 04:18:27;;;;;;;0.50;0.50;;;8.80;99.90;;;;;;4409757;32;20132;-59
2024/02/10 04:20:54;;;;;;;1.15;1.10;;;8.80;99.90;;;;;;4410175;32;20069;-58
2024/02/10 04:23:19;;;;;;;3.72;1.35;;;8.80;99.90;;;;;;4415252;32;20520;-58
2024/02/10 04:25:45;;;;;;;2.40;1.00;;;8.80;99.90;;;;;;4412159;32;20248;-58
2024/02/10 04:28:10;;;;;;;0.50;0.50;;;8.80;99.90;;;;;;4409812;32;20548;-57
2024/02/10 04:30:36;;;;;;;0.65;0.65;;;8.80;99.90;;;;;;4407987;32;20074;-58
2024/02/10 04:33:01;;;;;;;0.40;0.40;;;8.80;99.90;;;;;;4411902;32;20195;-58
2024/02/10 04:35:27;;;;;;;0.40;0.40;;;8.80;99.90;;;;;;4411609;32;20045;-58
2024/02/10 04:37:53;;;;;;;0.50;0.50;;;8.80;99.90;;;;;;4416105;32;20090;-58
2024/02/10 04:40:23;;;;;;;0.62;0.62;;;8.80;99.90;;;;;;4418061;32;20085;-57
2024/02/10 04:42:51;;;;;;;0.40;0.40;;;8.90;99.90;;;;;;4397981;32;20073;-59
2024/02/10 04:45:26;;;;;;;1.35;1.02;;;8.80;99.90;;;;;;4411564;32;20069;-59
2024/02/10 04:47:52;;;;;;;0.43;0.43;;;8.90;99.90;;;;;;4399755;32;20127;-58
2024/02/10 04:50:19;;;;;;;0.40;0.40;;;8.90;99.90;;;;;;4414743;32;20085;-60
2024/02/10 04:52:44;;;;;;;0.25;0.25;;;8.90;99.90;;;;;;4417026;32;20166;-58
2024/02/10 04:55:10;;;;;;;0.35;0.35;;;8.90;99.90;;;;;;4416424;32;20173;-58
2024/02/10 04:57:35;;;;;;;0.60;0.50;;;8.90;99.90;;;;;;4411719;32;20069;-56
2024/02/10 05:00:10;;;;;;;0.75;0.73;;;9.00;99.90;;;;;;4413002;32;20160;-57
2024/02/10 05:02:33;;;;;;;0.40;0.40;;;9.00;99.90;;;;;;4407086;32;20466;-58
2024/02/10 05:04:59;;;;;;;0.30;0.30;;;8.90;99.90;;;;;;4413861;32;20222;-57
2024/02/10 05:07:24;;;;;;;0.80;0.75;;;8.90;99.90;;;;;;4412887;32;20625;-57
2024/02/10 05:09:50;;;;;;;1.98;1.30;;;8.90;99.90;;;;;;4412742;32;20485;-56
2024/02/10 05:12:15;;;;;;;0.88;0.60;;;9.00;99.90;;;;;;4407856;32;20078;-61
2024/02/10 05:14:40;;;;;;;3.40;1.25;;;9.00;99.90;;;;;;4411026;32;20135;-57
2024/02/10 05:17:06;;;;;;;0.40;0.40;;;9.00;99.90;;;;;;4413728;32;20596;-56
2024/02/10 05:19:33;;;;;;;1.30;1.02;;;9.00;99.90;;;;;;4417345;32;20489;-58
2024/02/10 05:21:58;;;;;;;0.60;0.60;;;9.00;99.90;;;;;;4417331;32;20082;-58
2024/02/10 05:24:24;;;;;;;0.70;0.70;;;9.00;99.90;;;;;;4415358;32;20435;-56
2024/02/10 05:26:50;;;;;;;0.40;0.40;;;9.00;99.90;;;;;;4412916;32;20076;-58
2024/02/10 05:29:18;;;;;;;0.60;0.60;;;9.00;99.90;;;;;;4416525;32;20471;-56
2024/02/10 05:31:47;;;;;;;0.60;0.60;;;9.00;99.90;;;;;;4414460;32;20152;-58
2024/02/10 05:34:14;;;;;;;0.60;0.60;;;9.00;99.90;;;;;;4413881;32;20537;-58
2024/02/10 05:36:40;;;;;;;0.30;0.30;;;9.00;99.90;;;;;;4413106;32;20073;-57
2024/02/10 05:39:07;;;;;;;0.50;0.50;;;9.00;99.90;;;;;;4416546;32;20066;-57
2024/02/10 05:41:32;;;;;;;0.40;0.40;;;9.00;99.90;;;;;;4414610;32;20077;-57
2024/02/10 05:43:58;;;;;;;0.85;0.70;;;9.00;99.90;;;;;;4413889;32;20089;-59
2024/02/10 05:46:23;;;;;;;4.18;1.42;;;9.00;99.90;;;;;;4412713;32;20074;-56
2024/02/10 05:48:50;;;;;;;23.00;1.40;;;9.00;99.90;;;;;;4414732;32;20124;-57
2024/02/10 05:51:17;;;;;;;0.57;0.57;;;9.10;99.90;;;;;;4417524;32;20069;-57
2024/02/10 05:53:46;;;;;;;0.88;0.80;;;9.10;99.90;;;;;;4414187;32;20405;-58
2024/02/10 05:56:15;;;;;;;0.47;0.47;;;9.10;99.90;;;;;;4413343;32;20172;-57
2024/02/10 05:58:41;;;;;;;0.30;0.30;;;9.10;99.90;;;;;;4414105;32;20574;-58
2024/02/10 06:01:10;;;;;;;0.60;0.60;;;9.20;99.90;;;;;;4410565;32;20072;-58
2024/02/10 06:03:36;;;;;;;1.27;1.17;;;9.10;99.90;;;;;;4412994;32;20069;-58
2024/02/10 06:06:05;;;;;;;1.17;0.73;;;9.10;99.90;;;;;;4414734;32;20446;-60
2024/02/10 06:08:31;;;;;;;0.40;0.40;;;9.10;99.90;;;;;;4415054;32;20132;-58
2024/02/10 06:10:58;;;;;;;0.50;0.50;;;9.20;99.90;;;;;;4415142;32;20069;-58
2024/02/10 06:13:27;;;;;;;0.40;0.40;;;9.20;99.90;;;;;;4410374;32;20069;-58
2024/02/10 06:15:54;;;;;;;0.88;0.73;;;9.30;99.90;;;;;;4410391;32;20084;-59
2024/02/10 06:18:19;;;;;;;0.73;0.73;;;9.20;99.90;;;;;;4416001;32;20066;-59
2024/02/10 06:20:45;;;;;;;0.40;0.40;;;9.20;99.90;;;;;;4414746;32;20093;-57
2024/02/10 06:23:10;;;;;;;0.80;0.80;;;9.20;99.90;;;;;;4415522;32;20065;-57
2024/02/10 06:25:36;;;;;;;0.50;0.50;;;9.30;99.90;;;;;;4411542;32;20116;-56
2024/02/10 06:28:02;;;;;;;1.08;0.80;;;9.30;99.90;;;;;;4415277;32;20157;-56
2024/02/10 06:30:30;;;;;;;0.75;0.60;;;9.30;99.90;;;;;;4412122;32;20450;-57
2024/02/10 06:32:56;;;;;;;0.55;0.55;;;9.20;99.90;;;;;;4412310;32;20459;-58
2024/02/10 06:35:22;;;;;;;0.50;0.50;;;9.20;99.90;;;;;;4416576;32;20077;-58
2024/02/10 06:37:49;;;;;;;1.27;0.95;;;9.20;99.90;;;;;;4410681;32;20131;-57
2024/02/10 06:40:16;;;;;;;2.97;1.02;;;9.30;99.90;;;;;;4414575;32;20471;-57
2024/02/10 06:42:46;;;;;;;0.40;0.40;;;9.20;99.90;;;;;;4411261;32;20509;-55
2024/02/10 06:45:14;;;;;;;0.60;0.60;;;9.20;99.90;;;;;;4411478;32;20078;-56
2024/02/10 06:47:43;;;;;;;0.35;0.35;;;9.20;99.90;;;;;;4414606;32;20054;-58
2024/02/10 06:50:11;;;;;;;0.60;0.60;;;9.20;99.90;;;;;;4412911;32;20101;-57
2024/02/10 06:52:37;;;;;;;0.40;0.40;;;9.10;99.90;;;;;;4413551;32;20533;-59
2024/02/10 06:55:04;;;;;;;0.50;0.50;;;9.10;99.90;;;;;;4409458;32;20151;-59
2024/02/10 06:57:31;;;;;;;0.50;0.50;;;9.10;99.90;;;;;;4411258;32;20078;-57
2024/02/10 06:59:57;;;;;;;0.52;0.52;;;9.10;99.90;;;;;;4415900;32;20526;-58
2024/02/10 07:02:24;;;;;;;1.35;0.90;;;9.10;99.90;;;;;;4412931;32;20065;-58
2024/02/10 07:04:52;;;;;;;1.55;1.45;;;9.10;99.90;;;;;;4413967;32;20073;-58
2024/02/10 07:07:19;;;;;;;1.90;1.02;;;9.10;99.90;;;;;;4411930;32;20407;-58
2024/02/10 07:09:45;;;;;;;0.80;0.80;;;9.20;99.90;;;;;;4412355;32;21459;-57
2024/02/10 07:12:10;;;;;;;1.25;1.15;;;9.20;99.90;;;;;;4410176;32;20066;-59
2024/02/10 07:14:36;;;;;;;0.40;0.40;;;9.20;99.90;;;;;;4409993;32;20508;-57
2024/02/10 07:17:01;;;;;;;0.60;0.60;;;9.10;99.90;;;;;;4413704;32;20080;-59
2024/02/10 07:19:29;;;;;;;2.92;1.62;;;9.20;99.90;;;;;;4410084;32;20941;-59
2024/02/10 07:21:58;;;;;;;2.17;1.58;;;9.10;99.90;;;;;;4412880;32;20114;-59
2024/02/10 07:24:24;;;;;;;1.05;1.00;;;9.10;99.90;;;;;;4413139;32;20773;-56
2024/02/10 07:26:50;;;;;;;0.40;0.40;;;9.10;99.90;;;;;;4410550;32;20110;-58
2024/02/10 07:29:16;;;;;;;0.35;0.35;;;9.10;99.90;;;;;;4414896;32;20061;-57
2024/02/10 07:31:44;;;;;;;0.40;0.40;;;9.10;99.90;;;;;;4415951;32;20571;-59
2024/02/10 07:34:09;;;;;;;1.45;1.35;;;9.10;99.90;;;;;;4413032;32;20065;-58
2024/02/10 07:36:35;;;;;;;0.50;0.50;;;9.10;99.90;;;;;;4414902;32;21067;-58
2024/02/10 07:39:06;;;;;;;0.30;0.30;;;9.10;99.90;;;;;;4414163;32;20064;-59
2024/02/10 07:41:33;;;;;;;6.28;0.95;;;9.20;99.90;;;;;;4400791;32;20132;-58
2024/02/10 07:44:02;;;;;;;0.45;0.45;;;9.10;99.90;;;;;;4416009;32;20513;-59
2024/02/10 07:46:30;;;;;;;1.00;0.70;;;9.20;99.90;;;;;;4417088;32;20072;-59
2024/02/10 07:48:57;;;;;;;0.45;0.43;;;9.20;99.90;;;;;;4413545;32;20127;-59
2024/02/10 07:51:23;;;;;;;0.50;0.50;;;9.20;99.90;;;;;;4415333;32;20065;-58
2024/02/10 07:53:48;;;;;;;0.98;0.62;;;9.20;99.90;;;;;;4412259;32;20061;-58
2024/02/10 07:56:13;;;;;;;3.08;1.30;;;9.20;99.90;;;;;;4418704;32;20189;-57
2024/02/10 07:58:40;;;;;;;1.10;1.00;;;9.20;99.90;;;;;;4406836;32;20069;-58
2024/02/10 08:01:06;;;;;;;0.70;0.70;;;9.30;99.90;;;;;;4412454;32;20558;-58
2024/02/10 08:03:32;;;;;;;0.75;0.75;;;9.30;99.90;;;;;;4412876;32;20116;-59
2024/02/10 08:05:58;;;;;;;0.80;0.73;;;9.30;99.90;;;;;;4413963;32;20088;-58
2024/02/10 08:08:26;;;;;;;0.60;0.60;;;9.40;99.90;;;;;;4412553;32;20070;-59
2024/02/10 08:10:52;;;;;;;0.40;0.40;;;9.40;99.90;;;;;;4418495;32;20149;-59
2024/02/10 08:13:17;;;;;;;0.55;0.55;;;9.40;99.90;;;;;;4413948;32;20530;-58
2024/02/10 08:15:46;;;;;;;0.47;0.47;;;9.40;99.90;;;;;;4416145;32;20127;-58
2024/02/10 08:18:11;;;;;;;0.30;0.30;;;9.40;99.90;;;;;;4419441;32;20528;-58
2024/02/10 08:20:40;;;;;;;0.30;0.30;;;9.40;99.90;;;;;;4416666;32;20082;-58
2024/02/10 08:23:07;;;;;;;0.50;0.50;;;9.50;99.90;;;;;;4413611;32;20551;-58
2024/02/10 08:25:32;;;;;;;0.35;0.35;;;9.50;99.90;;;;;;4418066;32;20137;-57
2024/02/10 08:27:59;;;;;;;0.45;0.43;;;9.50;99.90;;;;;;4415405;32;20164;-59
2024/02/10 08:30:25;;;;;;;0.40;0.40;;;9.60;99.90;;;;;;4414239;32;20090;-58
2024/02/10 08:32:53;;;;;;;0.70;0.70;;;9.60;99.90;;;;;;4414233;32;20081;-58
2024/02/10 08:35:18;;;;;;;0.57;0.57;;;9.60;99.90;;;;;;4414404;32;20085;-59
2024/02/10 08:37:44;;;;;;;0.50;0.50;;;9.60;99.90;;;;;;4412527;32;20077;-59
2024/02/10 08:40:10;;;;;;;1.02;0.93;;;9.70;99.90;;;;;;4412416;32;20103;-59
2024/02/10 08:42:36;;;;;;;1.17;0.82;;;9.70;99.90;;;;;;4417081;32;20081;-58
2024/02/10 08:45:05;;;;;;;0.95;0.88;;;9.60;99.90;;;;;;4415225;32;20077;-59
2024/02/10 08:47:30;;;;;;;0.30;0.30;;;9.60;99.90;;;;;;4414434;32;20101;-58
2024/02/10 08:49:56;;;;;;;0.90;0.57;;;9.70;99.90;;;;;;4419041;32;20532;-60
2024/02/10 08:52:21;;;;;;;0.73;0.40;;;9.70;99.90;;;;;;4415078;32;20144;-59
2024/02/10 08:54:47;;;;;;;0.25;0.25;;;9.70;99.90;;;;;;4417636;32;20076;-58
2024/02/10 08:57:15;;;;;;;0.45;0.45;;;9.70;99.90;;;;;;4414263;32;20446;-58
2024/02/10 08:59:45;;;;;;;0.40;0.40;;;9.80;99.90;;;;;;4412706;32;20065;-59
2024/02/10 09:02:11;;;;;;;1.05;0.60;;;10.00;99.90;;;;;;4411592;32;20082;-59
2024/02/10 09:04:38;;;;;;;0.95;0.95;;;10.00;99.90;;;;;;4415266;32;20124;-58
2024/02/10 09:07:05;;;;;;;0.37;0.37;;;10.10;99.90;;;;;;4413292;32;20552;-59
2024/02/10 09:09:31;;;;;;;0.52;0.52;;;10.10;99.90;;;;;;4413107;32;20085;-59
2024/02/10 09:11:56;;;;;;;0.45;0.45;;;10.20;99.90;;;;;;4415630;32;20122;-59
2024/02/10 09:14:23;;;;;;;0.37;0.37;;;10.20;99.90;;;;;;4412554;32;20081;-58
2024/02/10 09:16:48;;;;;;;0.62;0.62;;;10.30;99.90;;;;;;4421963;32;20781;-60
2024/02/10 09:19:16;;;;;;;0.37;0.37;;;10.30;99.90;;;;;;4416696;32;20076;-58
2024/02/10 09:21:44;;;;;;;0.50;0.50;;;10.30;99.90;;;;;;4417512;32;20091;-60
2024/02/10 09:24:13;;;;;;;2.42;1.23;;;10.30;99.90;;;;;;4415017;32;20081;-59
2024/02/10 09:26:39;;;;;;;0.50;0.50;;;10.30;99.90;;;;;;4412641;32;20073;-60
2024/02/10 09:29:04;;;;;;;0.65;0.65;;;10.40;99.90;;;;;;4417866;32;20566;-60
2024/02/10 09:31:30;;;;;;;0.57;0.55;;;10.30;99.90;;;;;;4413766;32;20126;-60
2024/02/10 09:33:55;;;;;;;0.57;0.57;;;10.40;99.90;;;;;;4414988;32;20092;-60
2024/02/10 09:36:20;;;;;;;0.55;0.55;;;10.40;99.90;;;;;;4413336;32;20172;-60
2024/02/10 09:38:47;;;;;;;0.52;0.52;;;10.50;99.90;;;;;;4417133;32;20077;-60
2024/02/10 09:41:12;;;;;;;0.60;0.60;;;10.50;99.90;;;;;;4413163;32;20094;-60
2024/02/10 09:43:39;;;;;;;0.50;0.50;;;10.60;99.90;;;;;;4410561;32;20525;-58
2024/02/10 09:46:06;;;;;;;0.52;0.52;;;10.60;99.90;;;;;;4412047;32;20127;-60
2024/02/10 09:48:37;;;;;;;0.43;0.43;;;10.60;99.90;;;;;;4412934;32;20120;-60
2024/02/10 09:51:03;;;;;;;1.65;0.55;;;10.60;99.90;;;;;;4412101;32;20101;-59
2024/02/10 09:53:29;;;;;;;0.50;0.50;;;10.60;99.90;;;;;;4413786;32;20098;-60
2024/02/10 09:55:56;;;;;;;1.25;1.15;;;10.60;99.90;;;;;;4413550;32;20129;-59
2024/02/10 09:58:24;;;;;;;0.55;0.55;;;10.50;99.90;;;;;;4413538;32;20084;-61
2024/02/10 10:00:49;;;;;;;2.15;1.48;;;10.60;99.90;;;;;;4413613;32;20140;-61
2024/02/10 10:03:16;;;;;;;0.52;0.52;;;10.60;99.90;;;;;;4411341;32;20090;-59
2024/02/10 10:05:42;;;;;;;0.70;0.55;;;10.70;99.90;;;;;;4414613;32;20520;-60
2024/02/10 10:08:10;;;;;;;2.20;1.17;;;10.60;99.90;;;;;;4414323;32;20549;-60
2024/02/10 10:10:36;;;;;;;1.55;1.15;;;10.70;99.90;;;;;;4410691;32;20081;-60
2024/02/10 10:13:01;;;;;;;0.40;0.40;;;10.70;99.90;;;;;;4412660;32;20109;-67
2024/02/10 10:15:29;;;;;;;2.12;1.45;;;10.70;99.90;;;;;;4413678;32;20177;-61
2024/02/10 10:17:55;;;;;;;0.85;0.55;;;10.70;99.90;;;;;;4410518;32;20133;-59
2024/02/10 10:20:21;;;;;;;5.05;0.95;;;10.70;99.90;;;;;;4413553;32;20102;-58
2024/02/10 10:22:50;;;;;;;0.40;0.40;;;10.80;99.90;;;;;;4416511;32;20078;-57
2024/02/10 10:25:15;;;;;;;0.50;0.50;;;10.80;99.90;;;;;;4412955;32;20509;-60
2024/02/10 10:27:41;;;;;;;1.80;1.40;;;10.80;99.90;;;;;;4412402;32;20175;-61
2024/02/10 10:30:14;;;;;;;0.57;0.57;;;10.90;99.90;;;;;;4412104;32;20163;-60
2024/02/10 10:32:42;;;;;;;1.58;1.08;;;10.90;99.90;;;;;;4397479;32;20089;-60
2024/02/10 10:35:11;;;;;;;0.68;0.68;;;10.90;99.90;;;;;;4414734;32;20072;-58
2024/02/10 10:37:36;;;;;;;0.50;0.50;;;10.90;99.90;;;;;;4412231;32;20077;-58
2024/02/10 10:40:07;;;;;;;3.30;0.75;;;11.00;99.90;;;;;;4411295;32;20128;-58
2024/02/10 10:42:35;;;;;;;4.72;0.95;;;11.00;99.90;;;;;;4414336;32;20492;-58
2024/02/10 10:45:03;;;;;;;0.40;0.40;;;11.00;99.90;;;;;;4410593;32;20077;-59
2024/02/10 10:47:29;;;;;;;0.40;0.40;;;11.00;99.90;;;;;;4413747;32;20097;-59
2024/02/10 10:49:57;;;;;;;0.30;0.30;;;11.00;99.90;;;;;;4414991;32;20058;-59
2024/02/10 10:52:27;;;;;;;0.50;0.50;;;11.10;99.90;;;;;;4413644;32;20110;-60
2024/02/10 10:54:55;;;;;;;0.90;0.75;;;11.10;99.90;;;;;;4411916;32;20061;-59
2024/02/10 10:57:23;;;;;;;0.32;0.32;;;11.10;99.90;;;;;;4414905;32;20105;-59
2024/02/10 10:59:55;;;;;;;0.60;0.60;;;11.10;99.90;;;;;;4411062;32;20512;-59
2024/02/10 11:02:28;;;;;;;0.73;0.45;;;11.20;99.90;;;;;;4398223;32;20077;-59
2024/02/10 11:05:03;;;;;;;0.62;0.62;;;11.20;99.90;;;;;;4416197;32;20069;-60
2024/02/10 11:07:37;;;;;;;0.60;0.60;;;11.30;99.90;;;;;;4396867;32;20090;-59
2024/02/10 11:10:04;;;;;;;0.75;0.70;;;11.40;99.90;;;;;;4411487;32;20076;-60
2024/02/10 11:12:31;;;;;;;0.50;0.50;;;11.50;99.90;;;;;;4404972;32;20102;-59
2024/02/10 11:14:57;;;;;;;0.73;0.52;;;11.50;99.90;;;;;;4410487;32;20521;-58
2024/02/10 11:17:29;;;;;;;0.77;0.77;;;11.60;99.90;;;;;;4411304;32;20476;-59
2024/02/10 11:19:59;;;;;;;2.83;0.75;;;11.60;99.90;;;;;;4407882;32;20078;-59
2024/02/10 11:22:26;;;;;;;0.70;0.70;;;11.70;99.90;;;;;;4406386;32;20078;-59
2024/02/10 11:24:53;;;;;;;0.40;0.40;;;11.70;99.90;;;;;;4416192;32;20084;-59
2024/02/10 11:27:19;;;;;;;0.50;0.50;;;11.70;99.90;;;;;;4403763;32;20494;-58
2024/02/10 11:29:46;;;;;;;0.37;0.37;;;11.80;99.90;;;;;;4413741;32;20098;-59
2024/02/10 11:32:12;;;;;;;0.50;0.50;;;11.90;99.90;;;;;;4409000;32;20076;-58
2024/02/10 11:34:38;;;;;;;0.60;0.60;;;11.90;99.90;;;;;;4412609;32;21950;-58
2024/02/10 11:37:03;;;;;;;0.55;0.55;;;11.90;99.90;;;;;;4399681;32;20073;-59
2024/02/10 11:39:29;;;;;;;0.62;0.62;;;11.90;99.90;;;;;;4411929;32;20533;-58
2024/02/10 11:41:56;;;;;;;1.70;0.75;;;11.90;99.90;;;;;;4401262;32;20144;-57
2024/02/10 11:44:26;;;;;;;0.40;0.40;;;12.00;99.90;;;;;;4394283;32;20497;-60
2024/02/10 11:46:51;;;;;;;10.40;1.37;;;12.10;99.90;;;;;;4400319;32;20459;-59
2024/02/10 11:49:17;;;;;;;1.08;0.85;;;12.20;99.90;;;;;;4402434;32;20058;-58
2024/02/10 11:51:43;;;;;;;0.65;0.65;;;12.40;99.90;;;;;;4405429;32;93460;-59
2024/02/10 11:54:09;;;;;;;0.43;0.43;;;12.60;99.90;;;;;;4408414;32;20102;-61
2024/02/10 11:56:35;;;;;;;0.60;0.60;;;12.70;99.90;;;;;;4409830;32;20134;-61
2024/02/10 11:59:01;;;;;;;0.47;0.47;;;12.80;99.90;;;;;;4409406;32;21707;-60
2024/02/10 12:01:27;;;;;;;0.65;0.65;;;13.00;99.90;;;;;;4411370;32;21084;-61
2024/02/10 12:03:53;;;;;;;0.47;0.47;;;13.10;99.90;;;;;;4413752;32;20168;-61
2024/02/10 12:06:21;;;;;;;0.55;0.55;;;13.30;99.90;;;;;;4410445;32;20066;-62
2024/02/10 12:08:47;;;;;;;0.50;0.50;;;13.40;99.90;;;;;;4410402;32;20062;-59
2024/02/10 12:11:16;;;;;;;0.40;0.40;;;13.40;99.90;;;;;;4409343;32;20074;-60
2024/02/10 12:13:42;;;;;;;1.55;0.57;;;13.40;99.90;;;;;;4409541;32;20109;-58
2024/02/10 12:16:10;;;;;;;0.50;0.50;;;13.40;99.90;;;;;;4413239;32;20085;-60
2024/02/10 12:18:38;;;;;;;0.40;0.40;;;13.20;99.90;;;;;;4408774;32;20434;-60
2024/02/10 12:21:04;;;;;;;0.40;0.40;;;13.00;99.90;;;;;;4411376;32;20069;-59
2024/02/10 12:23:32;;;;;;;0.47;0.47;;;13.00;99.90;;;;;;4415835;32;20077;-60
2024/02/10 12:25:59;;;;;;;0.40;0.40;;;13.00;99.90;;;;;;4411471;32;20081;-60
2024/02/10 12:28:24;;;;;;;0.57;0.57;;;12.90;99.90;;;;;;4409303;32;20085;-60
2024/02/10 12:30:50;;;;;;;0.40;0.40;;;12.90;99.90;;;;;;4411923;32;20509;-60
2024/02/10 12:33:17;;;;;;;0.50;0.50;;;13.00;99.90;;;;;;4414612;32;20122;-61
2024/02/10 12:35:45;;;;;;;0.43;0.43;;;13.00;99.90;;;;;;4411999;32;20446;-61
2024/02/10 12:38:12;;;;;;;0.50;0.50;;;13.20;99.90;;;;;;4416151;32;20128;-59
2024/02/10 12:40:38;;;;;;;0.50;0.50;;;13.60;99.90;;;;;;4399275;32;20129;-62
2024/02/10 12:43:04;;;;;;;0.43;0.43;;;14.20;99.90;;;;;;4406791;32;20093;-59
2024/02/10 12:45:30;;;;;;;0.40;0.40;;;14.90;99.90;;;;;;4402684;32;20200;-58
2024/02/10 12:47:55;;;;;;;0.30;0.30;;;15.40;99.90;;;;;;4402512;32;20094;-59
2024/02/10 12:50:21;;;;;;;0.30;0.30;;;15.90;99.90;;;;;;4409754;32;20093;-59
2024/02/10 12:52:47;;;;;;;0.35;0.35;;;16.20;99.90;;;;;;4408840;32;20135;-56